Time;durP1;ratioP1;P1;durP2;ratioP2;P2;SDS_P1;SDS_P2;PMS_P1;PMS_P2;Temp;Humidity;BMP_temperature;BMP_pressure;BME280_temperature;BME280_humidity;BME280_pressure;Samples;Min_cycle;Max_cycle;Signal;HPM_P1;HPM_P2
2021/10/17 00:01:24;;;;;;;8.10;4.88;;;;;;;11.69;64.19;100610.78;10324563;28;20073;-57
2021/10/17 00:06:28;;;;;;;6.35;4.95;;;;;;;11.68;64.31;100609.94;10319954;28;20070;-57
2021/10/17 00:11:29;;;;;;;7.40;4.10;;;;;;;11.56;64.05;100594.91;10319555;28;20442;-59
2021/10/17 00:16:31;;;;;;;6.70;4.63;;;;;;;11.53;64.21;100618.28;10320549;28;20070;-57
2021/10/17 00:21:32;;;;;;;7.63;4.55;;;;;;;11.52;65.20;100625.44;10325597;28;20042;-58
2021/10/17 00:26:34;;;;;;;6.93;4.38;;;;;;;11.51;64.82;100621.06;10324663;28;20435;-58
2021/10/17 00:31:36;;;;;;;8.10;5.32;;;;;;;11.30;64.65;100597.81;10333705;28;20073;-56
2021/10/17 00:36:37;;;;;;;7.40;4.90;;;;;;;11.45;64.52;100619.75;10322454;28;20046;-58
2021/10/17 00:41:39;;;;;;;5.88;4.15;;;;;;;11.49;64.26;100623.03;10321712;28;20516;-57
2021/10/17 00:46:41;;;;;;;8.10;4.57;;;;;;;11.37;64.27;100603.50;10323028;28;20098;-59
2021/10/17 00:51:44;;;;;;;9.73;4.00;;;;;;;11.42;64.02;100616.47;10347963;28;20411;-58
2021/10/17 00:56:45;;;;;;;7.95;3.85;;;;;;;11.43;64.30;100608.34;10328639;28;20734;-59
2021/10/17 01:01:47;;;;;;;8.05;4.03;;;;;;;11.49;64.76;100601.69;10325392;28;20193;-59
2021/10/17 01:06:48;;;;;;;7.15;3.95;;;;;;;11.55;63.79;100601.22;10336910;28;20533;-59
2021/10/17 01:11:50;;;;;;;6.97;4.75;;;;;;;11.40;63.56;100584.59;10324793;28;20050;-58
2021/10/17 01:16:52;;;;;;;5.78;3.90;;;;;;;11.47;63.61;100588.50;10345503;28;20124;-56
2021/10/17 01:21:54;;;;;;;8.02;3.97;;;;;;;11.45;63.69;100590.44;10328256;28;20410;-55
2021/10/17 01:26:55;;;;;;;7.63;4.20;;;;;;;11.45;63.79;100600.22;10330504;28;20058;-56
2021/10/17 01:31:57;;;;;;;8.75;4.55;;;;;;;11.45;63.92;100589.56;10323325;28;20496;-56
2021/10/17 01:36:58;;;;;;;7.90;4.68;;;;;;;11.43;63.65;100602.19;10326549;28;20046;-56
2021/10/17 01:42:00;;;;;;;9.18;4.03;;;;;;;11.44;64.03;100582.53;10327294;28;20116;-58
2021/10/17 01:47:04;;;;;;;6.15;4.15;;;;;;;11.49;63.86;100583.88;10332473;28;20400;-58
2021/10/17 01:52:07;;;;;;;6.35;3.75;;;;;;;11.54;64.36;100588.00;10326793;28;20042;-55
2021/10/17 01:57:08;;;;;;;8.07;3.60;;;;;;;11.46;64.35;100572.63;10323348;28;20423;-57
2021/10/17 02:02:10;;;;;;;7.13;4.82;;;;;;;11.56;64.17;100586.06;10319873;28;20050;-55
2021/10/17 02:07:12;;;;;;;7.25;4.20;;;;;;;11.57;64.57;100580.59;10319733;28;20136;-56
2021/10/17 02:12:15;;;;;;;8.02;3.60;;;;;;;11.42;63.98;100563.16;10312931;28;20054;-57
2021/10/17 02:17:17;;;;;;;7.25;4.22;;;;;;;11.48;64.04;100562.66;10315520;28;20619;-56
2021/10/17 02:22:18;;;;;;;10.10;4.68;;;;;;;11.46;64.41;100559.28;10322157;28;20062;-57
2021/10/17 02:27:20;;;;;;;7.03;4.30;;;;;;;11.49;64.25;100559.03;10324139;28;20084;-58
2021/10/17 02:32:21;;;;;;;7.88;3.92;;;;;;;11.40;64.39;100559.78;10325961;28;20077;-58
2021/10/17 02:37:22;;;;;;;7.50;4.35;;;;;;;11.34;64.16;100550.44;10325127;28;20074;-56
2021/10/17 02:42:24;;;;;;;7.65;4.65;;;;;;;11.30;64.38;100555.19;10322384;28;20050;-57
2021/10/17 02:47:26;;;;;;;7.35;4.90;;;;;;;11.17;65.88;100545.59;10330040;28;20046;-57
2021/10/17 02:52:28;;;;;;;8.98;5.72;;;;;;;11.24;65.83;100565.47;10320661;28;20073;-56
2021/10/17 02:57:29;;;;;;;6.25;4.63;;;;;;;11.23;66.01;100553.97;10334196;28;20061;-58
2021/10/17 03:02:31;;;;;;;7.38;4.50;;;;;;;11.23;66.16;100543.31;10325783;28;20769;-57
2021/10/17 03:07:32;;;;;;;9.55;4.32;;;;;;;11.27;65.95;100550.09;10317763;28;20061;-57
2021/10/17 03:12:35;;;;;;;8.98;4.57;;;;;;;11.21;65.58;100560.38;10320331;28;20129;-57
2021/10/17 03:17:36;;;;;;;8.85;3.95;;;;;;;11.16;65.46;100547.41;10319696;28;20046;-58
2021/10/17 03:22:38;;;;;;;7.18;4.30;;;;;;;11.08;66.33;100556.00;10330854;28;20046;-57
2021/10/17 03:27:39;;;;;;;6.82;4.00;;;;;;;11.08;65.98;100555.13;10323235;28;20039;-57
2021/10/17 03:32:41;;;;;;;7.35;4.20;;;;;;;11.12;66.26;100552.16;10324620;28;20038;-57
2021/10/17 03:37:42;;;;;;;8.27;4.10;;;;;;;11.13;66.23;100553.81;10321650;28;20047;-58
2021/10/17 03:42:43;;;;;;;5.95;3.70;;;;;;;11.15;65.81;100537.72;10319080;28;20050;-56
2021/10/17 03:47:45;;;;;;;4.63;3.70;;;;;;;11.11;66.08;100555.78;10320362;28;20066;-58
2021/10/17 03:52:46;;;;;;;6.00;4.03;;;;;;;11.06;66.04;100541.09;10332652;28;20073;-58
2021/10/17 03:57:48;;;;;;;8.10;4.78;;;;;;;11.08;65.99;100544.47;10323740;28;20058;-56
2021/10/17 04:02:50;;;;;;;9.40;3.97;;;;;;;11.02;66.60;100523.66;10309126;28;20066;-57
2021/10/17 04:07:51;;;;;;;7.90;5.45;;;;;;;11.16;66.49;100541.25;10317346;28;20053;-57
2021/10/17 04:12:53;;;;;;;7.32;4.20;;;;;;;11.16;66.13;100542.09;10310151;28;20109;-57
2021/10/17 04:17:54;;;;;;;9.55;5.75;;;;;;;11.05;65.98;100528.75;10311015;28;20080;-57
2021/10/17 04:22:56;;;;;;;7.88;4.28;;;;;;;11.02;66.54;100534.31;10324390;28;20138;-56
2021/10/17 04:27:57;;;;;;;6.38;4.05;;;;;;;11.17;67.08;100543.78;10320703;28;20085;-58
2021/10/17 04:32:58;;;;;;;6.50;3.72;;;;;;;11.26;67.09;100548.38;10316626;28;20039;-56
2021/10/17 04:38:00;;;;;;;4.05;3.30;;;;;;;11.18;66.31;100539.31;10316329;28;20472;-57
2021/10/17 04:43:03;;;;;;;7.47;3.97;;;;;;;11.14;66.34;100541.38;10318478;28;20057;-56
2021/10/17 04:48:05;;;;;;;5.65;3.88;;;;;;;11.18;66.89;100528.63;10314122;28;20080;-58
2021/10/17 04:53:07;;;;;;;7.82;4.07;;;;;;;11.32;67.26;100542.56;10320056;28;20708;-57
2021/10/17 04:58:08;;;;;;;10.07;4.68;;;;;;;11.19;66.71;100525.84;10334688;28;20058;-55
2021/10/17 05:03:09;;;;;;;8.43;4.60;;;;;;;11.27;67.12;100544.75;10323545;28;20113;-58
2021/10/17 05:08:11;;;;;;;7.68;3.72;;;;;;;11.23;66.79;100543.31;10328405;28;20051;-59
2021/10/17 05:13:12;;;;;;;5.53;3.50;;;;;;;11.12;67.58;100527.28;10335926;28;20046;-58
2021/10/17 05:18:14;;;;;;;7.60;3.85;;;;;;;11.20;67.24;100538.22;10325744;23;20065;-64
2021/10/17 05:23:16;;;;;;;6.53;3.85;;;;;;;11.13;66.68;100542.31;10399663;28;20049;-64
2021/10/17 05:28:17;;;;;;;5.97;3.58;;;;;;;11.11;66.85;100538.94;10384032;28;20081;-64
2021/10/17 05:33:19;;;;;;;9.18;4.28;;;;;;;11.12;67.26;100546.81;10368651;28;20418;-64
2021/10/17 05:38:20;;;;;;;6.35;4.03;;;;;;;11.11;66.63;100554.94;10372512;28;20128;-64
2021/10/17 05:43:23;;;;;;;10.18;4.43;;;;;;;11.13;66.56;100552.97;10362400;28;20048;-62
2021/10/17 05:48:24;;;;;;;8.52;4.88;;;;;;;11.10;66.84;100558.56;10332439;28;20549;-64
2021/10/17 05:53:26;;;;;;;9.60;4.90;;;;;;;11.08;66.68;100560.47;10341378;28;20130;-64
2021/10/17 05:58:27;;;;;;;9.82;5.22;;;;;;;11.07;66.75;100566.78;10360629;28;20111;-65
2021/10/17 06:03:29;;;;;;;7.97;4.93;;;;;;;11.04;66.37;100565.19;10352921;28;20137;-64
2021/10/17 06:08:31;;;;;;;6.47;4.18;;;;;;;11.00;66.46;100568.22;10357537;28;20152;-66
2021/10/17 06:13:33;;;;;;;10.77;4.57;;;;;;;11.05;66.88;100582.00;10348334;28;20060;-65
2021/10/17 06:18:35;;;;;;;8.20;4.47;;;;;;;11.10;67.07;100598.50;10351097;28;20064;-65
2021/10/17 06:23:36;;;;;;;10.00;4.45;;;;;;;11.10;66.60;100603.84;10352365;28;20119;-65
2021/10/17 06:28:38;;;;;;;10.65;4.47;;;;;;;11.08;67.00;100603.09;10355834;28;20053;-65
2021/10/17 06:33:39;;;;;;;9.55;4.97;;;;;;;11.19;66.88;100620.94;10359150;28;20534;-66
2021/10/17 06:38:41;;;;;;;8.25;4.32;;;;;;;11.17;66.78;100617.53;10356971;28;20061;-66
2021/10/17 06:43:42;;;;;;;5.70;4.25;;;;;;;11.19;65.86;100615.59;10354242;28;20050;-65
2021/10/17 06:48:44;;;;;;;8.32;4.28;;;;;;;11.23;66.29;100614.38;10348473;28;20813;-66
2021/10/17 06:53:46;;;;;;;4.75;3.70;;;;;;;11.23;66.19;100622.38;10355800;28;20116;-65
2021/10/17 06:58:47;;;;;;;9.95;4.40;;;;;;;11.27;66.28;100638.03;10352368;28;20080;-65
2021/10/17 07:03:49;;;;;;;7.30;4.20;;;;;;;11.26;65.88;100633.66;10350850;28;20073;-65
2021/10/17 07:08:50;;;;;;;6.55;4.03;;;;;;;11.25;67.63;100641.78;10352544;28;20046;-66
2021/10/17 07:13:51;;;;;;;9.70;4.63;;;;;;;11.34;66.21;100650.88;10347715;28;20073;-65
2021/10/17 07:18:53;;;;;;;8.68;5.22;;;;;;;11.39;66.13;100654.03;10349625;28;20069;-66
2021/10/17 07:23:54;;;;;;;9.27;6.10;;;;;;;11.42;66.31;100659.13;10349974;28;20159;-66
2021/10/17 07:28:56;;;;;;;7.82;4.75;;;;;;;11.45;66.04;100656.22;10351970;28;20072;-64
2021/10/17 07:33:57;;;;;;;5.38;3.67;;;;;;;11.45;66.12;100658.88;10353089;28;20165;-65
2021/10/17 07:38:58;;;;;;;9.15;4.57;;;;;;;11.45;65.78;100648.22;10354344;28;20133;-65
2021/10/17 07:44:00;;;;;;;10.18;9.23;;;;;;;11.57;66.89;100663.25;10337590;28;20444;-65
2021/10/17 07:49:01;;;;;;;12.20;10.90;;;;;;;11.63;66.76;100662.78;10346540;28;20108;-65
2021/10/17 07:54:04;;;;;;;10.93;6.00;;;;;;;11.64;65.93;100659.13;10352389;28;20152;-65
2021/10/17 07:59:05;;;;;;;7.07;4.70;;;;;;;11.64;65.79;100661.81;10351744;28;20068;-65
2021/10/17 08:04:07;;;;;;;7.25;4.75;;;;;;;11.73;65.93;100660.25;10346536;28;20491;-65
2021/10/17 08:09:08;;;;;;;6.00;4.25;;;;;;;11.77;65.61;100647.50;10350736;28;20181;-65
2021/10/17 08:14:10;;;;;;;6.68;4.30;;;;;;;11.87;65.79;100647.63;10346985;28;20129;-66
2021/10/17 08:19:11;;;;;;;8.27;4.90;;;;;;;11.95;64.82;100639.88;10351182;28;20469;-65
2021/10/17 08:24:13;;;;;;;7.97;4.90;;;;;;;11.97;65.29;100649.47;10352708;28;20919;-65
2021/10/17 08:29:14;;;;;;;7.22;5.13;;;;;;;11.99;65.12;100644.88;10356985;28;20598;-65
2021/10/17 08:34:15;;;;;;;6.82;4.63;;;;;;;12.12;64.94;100646.53;10354330;28;20045;-65
2021/10/17 08:39:17;;;;;;;9.73;4.72;;;;;;;12.14;65.21;100645.44;10374880;28;20217;-65
2021/10/17 08:44:18;;;;;;;7.18;5.22;;;;;;;12.23;64.30;100648.34;10352855;28;20152;-65
2021/10/17 08:49:21;;;;;;;11.75;8.80;;;;;;;12.23;64.61;100651.84;10357495;28;20065;-65
2021/10/17 08:54:23;;;;;;;12.30;7.53;;;;;;;12.30;64.63;100661.06;10351463;28;20104;-65
2021/10/17 08:59:24;;;;;;;7.75;3.80;;;;;;;12.43;64.29;100649.38;10358420;28;20144;-65
2021/10/17 09:04:30;;;;;;;6.57;3.65;;;;;;;12.72;63.67;100650.47;10350530;28;20679;-64
2021/10/17 09:09:31;;;;;;;7.30;4.07;;;;;;;13.07;61.97;100654.69;10356574;28;20144;-64
2021/10/17 09:14:34;;;;;;;5.03;4.35;;;;;;;13.29;62.17;100642.19;10341774;28;20073;-64
2021/10/17 09:19:35;;;;;;;6.43;3.70;;;;;;;13.71;59.66;100639.47;10332562;28;20134;-64
2021/10/17 09:24:42;;;;;;;8.15;4.25;;;;;;;14.15;58.79;100634.66;10337210;28;20263;-66
2021/10/17 09:29:48;;;;;;;7.03;4.45;;;;;;;14.42;57.25;100651.91;10337660;28;20092;-66
2021/10/17 09:34:52;;;;;;;6.40;3.92;;;;;;;14.51;57.16;100642.19;10335443;28;20671;-66
2021/10/17 09:40:19;;;;;;;6.85;3.00;;;;;;;14.83;55.43;100650.00;10352293;28;20138;-66
2021/10/17 09:45:22;;;;;;;8.32;3.78;;;;;;;15.13;53.69;100652.63;10343026;28;20046;-66
2021/10/17 09:50:24;;;;;;;6.53;4.07;;;;;;;15.79;53.05;100650.94;10353205;28;20576;-66
2021/10/17 09:55:25;;;;;;;7.90;2.90;;;;;;;16.59;49.84;100643.97;10351484;28;20495;-65
2021/10/17 10:00:27;;;;;;;3.80;2.55;;;;;;;17.40;48.31;100639.41;10356871;28;20100;-65
2021/10/17 10:05:28;;;;;;;7.70;3.85;;;;;;;17.79;48.24;100638.09;10359669;28;20068;-65
2021/10/17 10:10:31;;;;;;;7.38;3.42;;;;;;;18.79;45.91;100631.97;10350216;28;20049;-66
2021/10/17 10:15:34;;;;;;;4.87;3.43;;;;;;;19.08;43.86;100640.44;10342509;28;21463;-66
2021/10/17 10:20:36;;;;;;;5.90;3.20;;;;;;;19.67;41.46;100642.00;10351998;28;20176;-67
2021/10/17 10:25:39;;;;;;;5.60;2.78;;;;;;;21.61;38.20;100645.63;10341310;28;20077;-68
2021/10/17 10:30:40;;;;;;;4.20;2.70;;;;;;;21.08;38.39;100640.22;10355123;28;20127;-67
2021/10/17 10:36:01;;;;;;;5.22;2.58;;;;;;;21.15;38.19;100643.00;10353690;28;20144;-67
2021/10/17 10:41:17;;;;;;;5.10;2.70;;;;;;;19.93;39.46;100644.47;10347332;28;20069;-68
2021/10/17 10:46:28;;;;;;;4.05;2.45;;;;;;;19.28;40.28;100642.78;10341984;28;20045;-67
2021/10/17 10:51:43;;;;;;;4.68;2.33;;;;;;;19.85;38.89;100639.13;10351561;28;20448;-67
2021/10/17 10:56:46;;;;;;;5.55;2.65;;;;;;;20.52;39.72;100624.19;10346150;28;20053;-67
2021/10/17 11:01:54;;;;;;;4.68;2.10;;;;;;;21.13;37.48;100615.28;10351971;28;20788;-67
2021/10/17 11:07:21;;;;;;;4.75;2.05;;;;;;;20.93;37.48;100614.97;10347713;28;20602;-66
2021/10/17 11:12:41;;;;;;;4.68;2.22;;;;;;;20.77;37.08;100611.38;10351975;28;20724;-67
2021/10/17 11:17:54;;;;;;;5.65;2.03;;;;;;;21.53;36.47;100600.50;10349490;28;21739;-67
2021/10/17 11:22:57;;;;;;;;;;;;;;;20.57;37.43;100608.31;10332176;23;20065;-60
2021/10/17 11:28:00;;;;;;;3.07;2.20;;;;;;;20.82;37.66;100603.56;10306243;28;20281;-61
2021/10/17 11:33:15;;;;;;;5.07;2.20;;;;;;;20.63;38.30;100598.63;10307398;28;20125;-60
2021/10/17 11:38:17;;;;;;;5.15;1.88;;;;;;;20.70;38.13;100605.00;10304292;28;20203;-60
2021/10/17 11:43:19;;;;;;;2.50;1.60;;;;;;;21.48;34.76;100602.91;10302648;28;20045;-60
2021/10/17 11:48:21;;;;;;;4.18;1.67;;;;;;;20.90;36.88;100607.22;10300224;28;20082;-60
2021/10/17 11:53:23;;;;;;;4.20;1.90;;;;;;;21.45;36.28;100597.88;10291890;28;20081;-60
2021/10/17 11:58:26;;;;;;;6.57;1.98;;;;;;;21.06;34.71;100590.81;10302411;28;20567;-60
2021/10/17 12:03:28;;;;;;;3.70;1.63;;;;;;;20.98;34.80;100580.91;10309781;28;20109;-60
2021/10/17 12:08:34;;;;;;;6.50;2.30;;;;;;;21.38;33.92;100580.69;10309947;28;20042;-60
2021/10/17 12:13:49;;;;;;;4.60;2.17;;;;;;;21.76;33.56;100588.72;10313704;28;20161;-60
2021/10/17 12:19:00;;;;;;;4.45;1.85;;;;;;;22.99;31.24;100577.06;10310118;28;20499;-60
2021/10/17 12:24:04;;;;;;;4.78;1.42;;;;;;;27.02;25.94;100571.19;10317708;28;20129;-60
2021/10/17 12:29:10;;;;;;;4.18;1.70;;;;;;;27.08;25.12;100571.13;10308880;28;20147;-61
2021/10/17 12:34:12;;;;;;;5.18;1.77;;;;;;;26.13;26.81;100565.75;10312129;28;20076;-60
2021/10/17 12:39:14;;;;;;;2.65;1.50;;;;;;;24.48;28.33;100570.22;10311313;28;20577;-60
2021/10/17 12:44:16;;;;;;;5.63;2.63;;;;;;;24.35;28.75;100566.44;10313863;28;20163;-60
2021/10/17 12:49:18;;;;;;;4.07;1.60;;;;;;;24.35;28.85;100552.84;10311214;28;20084;-60
2021/10/17 12:54:27;;;;;;;4.50;1.90;;;;;;;24.86;27.99;100556.03;10305723;28;20124;-60
2021/10/17 12:59:32;;;;;;;3.28;1.75;;;;;;;24.79;28.82;100553.31;10307256;28;20479;-60
2021/10/17 13:04:55;;;;;;;4.20;1.80;;;;;;;25.26;27.53;100552.41;10314697;28;20121;-61
2021/10/17 13:10:10;;;;;;;2.75;1.67;;;;;;;23.93;28.86;100545.84;10319106;28;20213;-60
2021/10/17 13:15:27;;;;;;;4.72;1.70;;;;;;;21.87;33.33;100553.03;10340003;28;20393;-60
2021/10/17 13:20:31;;;;;;;2.83;1.75;;;;;;;21.17;34.95;100549.78;10311727;28;20064;-60
2021/10/17 13:25:35;;;;;;;3.95;1.90;;;;;;;20.59;36.12;100548.63;10316964;28;20077;-60
2021/10/17 13:30:36;;;;;;;5.68;2.45;;;;;;;20.59;35.03;100538.63;10322820;28;20141;-60
2021/10/17 13:35:38;;;;;;;3.72;1.80;;;;;;;20.19;36.48;100535.25;10317622;28;20953;-61
2021/10/17 13:40:40;;;;;;;3.70;1.58;;;;;;;20.67;36.57;100532.34;10317342;28;20136;-60
2021/10/17 13:45:41;;;;;;;7.82;1.90;;;;;;;20.42;35.70;100531.69;10318522;28;20074;-59
2021/10/17 13:50:43;;;;;;;5.22;1.85;;;;;;;21.49;34.16;100536.88;10325973;28;20041;-60
2021/10/17 13:55:44;;;;;;;3.47;1.77;;;;;;;22.01;33.90;100526.91;10318866;28;20082;-61
2021/10/17 14:00:45;;;;;;;4.13;1.88;;;;;;;21.00;34.54;100529.31;10313376;28;20061;-60
2021/10/17 14:05:47;;;;;;;4.40;1.75;;;;;;;20.18;35.54;100538.13;10316299;28;20062;-60
2021/10/17 14:10:50;;;;;;;4.25;1.50;;;;;;;20.01;36.51;100534.69;10310168;28;20131;-60
2021/10/17 14:15:52;;;;;;;4.03;1.08;;;;;;;19.99;35.71;100528.63;10321162;28;20130;-59
2021/10/17 14:20:53;;;;;;;1.77;1.23;;;;;;;19.20;37.22;100540.25;10316570;28;20062;-60
2021/10/17 14:25:55;;;;;;;5.10;2.28;;;;;;;19.30;37.79;100538.19;10309735;28;20046;-60
2021/10/17 14:30:56;;;;;;;3.00;1.48;;;;;;;18.95;37.87;100551.09;10311539;28;20054;-60
2021/10/17 14:36:01;;;;;;;4.78;1.85;;;;;;;18.23;38.97;100535.59;10310963;28;20521;-59
2021/10/17 14:41:02;;;;;;;6.57;2.30;;;;;;;17.60;41.27;100539.59;10308559;28;20138;-59
2021/10/17 14:46:04;;;;;;;2.13;1.05;;;;;;;17.31;41.61;100541.66;10313988;28;20184;-59
2021/10/17 14:51:06;;;;;;;7.35;1.63;;;;;;;17.12;43.01;100552.66;10310830;28;20123;-59
2021/10/17 14:56:08;;;;;;;5.47;1.70;;;;;;;16.88;43.03;100546.13;10306461;28;20115;-59
2021/10/17 15:01:09;;;;;;;3.55;1.60;;;;;;;16.56;43.87;100546.69;10310871;28;20142;-59
2021/10/17 15:06:11;;;;;;;4.93;1.25;;;;;;;16.40;45.40;100548.22;10310350;28;20663;-59
2021/10/17 15:11:12;;;;;;;3.15;1.48;;;;;;;16.24;45.43;100546.25;10311226;28;20066;-61
2021/10/17 15:16:14;;;;;;;3.63;2.80;;;;;;;16.14;47.38;100558.91;10305979;28;20117;-59
2021/10/17 15:21:15;;;;;;;3.75;1.35;;;;;;;16.09;46.67;100555.81;10310268;28;20116;-59
2021/10/17 15:26:17;;;;;;;2.97;1.40;;;;;;;16.05;46.58;100554.44;10302581;28;20588;-59
2021/10/17 15:31:18;;;;;;;4.05;1.70;;;;;;;16.00;47.88;100562.09;10289867;28;20054;-56
2021/10/17 15:36:20;;;;;;;4.97;1.45;;;;;;;15.90;47.45;100563.00;10295441;28;20053;-56
2021/10/17 15:41:21;;;;;;;3.90;1.77;;;;;;;15.85;48.01;100586.78;10286201;28;20141;-55
2021/10/17 15:46:22;;;;;;;4.18;2.15;;;;;;;15.79;48.07;100570.41;10298806;28;20109;-55
2021/10/17 15:51:24;;;;;;;2.30;1.50;;;;;;;15.61;49.02;100565.81;10296875;28;20491;-55
2021/10/17 15:56:25;;;;;;;4.38;1.80;;;;;;;15.59;49.66;100575.00;10309249;28;20078;-55
2021/10/17 16:01:27;;;;;;;2.70;1.70;;;;;;;15.52;51.16;100578.28;10300146;28;20066;-55
2021/10/17 16:06:28;;;;;;;4.65;1.67;;;;;;;15.46;50.01;100576.22;10297399;28;20117;-55
2021/10/17 16:11:34;;;;;;;3.00;2.00;;;;;;;15.38;51.87;100579.59;10300221;28;20127;-59
2021/10/17 16:16:35;;;;;;;4.90;1.65;;;;;;;15.24;51.93;100572.03;10294366;28;20142;-59
2021/10/17 16:21:36;;;;;;;6.38;3.08;;;;;;;15.13;52.21;100582.94;10291215;28;20093;-58
2021/10/17 16:26:38;;;;;;;4.93;2.63;;;;;;;14.99;52.38;100590.44;10285488;28;20169;-60
2021/10/17 16:31:50;;;;;;;7.32;3.40;;;;;;;14.90;53.58;100590.47;10285106;28;20352;-60
2021/10/17 16:36:52;;;;;;;7.43;2.70;;;;;;;14.80;54.12;100585.97;10297703;28;20112;-59
2021/10/17 16:41:53;;;;;;;4.80;2.50;;;;;;;14.65;54.09;100584.69;10297333;28;20434;-59
2021/10/17 16:46:55;;;;;;;4.57;3.50;;;;;;;14.62;54.57;100588.53;10298733;28;20129;-59
2021/10/17 16:51:57;;;;;;;6.15;4.03;;;;;;;14.56;55.59;100598.91;10304803;28;20046;-59
2021/10/17 16:56:58;;;;;;;7.65;3.47;;;;;;;14.37;55.20;100581.84;10301841;28;20054;-59
2021/10/17 17:02:00;;;;;;;4.22;3.67;;;;;;;14.41;55.51;100602.03;10306380;28;20148;-60
2021/10/17 17:07:02;;;;;;;7.20;3.28;;;;;;;14.37;56.18;100611.31;10290353;28;20058;-59
2021/10/17 17:12:03;;;;;;;5.55;3.22;;;;;;;14.33;56.82;100610.72;10302803;28;20061;-58
2021/10/17 17:17:05;;;;;;;5.10;3.30;;;;;;;14.33;56.45;100602.69;10299110;28;20046;-59
2021/10/17 17:22:06;;;;;;;7.65;3.70;;;;;;;14.32;56.67;100611.72;10312814;28;20066;-60
2021/10/17 17:27:08;;;;;;;5.13;3.25;;;;;;;14.36;57.36;100623.00;10307868;28;20845;-58
2021/10/17 17:32:20;;;;;;;6.85;4.20;;;;;;;14.32;58.62;100624.25;10303218;28;20054;-58
2021/10/17 17:37:21;;;;;;;6.88;4.68;;;;;;;14.33;59.72;100631.31;10295280;28;20066;-56
2021/10/17 17:42:23;;;;;;;7.13;4.80;;;;;;;14.32;59.10;100640.31;10304393;28;20049;-55
2021/10/17 17:47:25;;;;;;;5.75;4.80;;;;;;;14.32;59.50;100638.50;10299695;28;20159;-57
2021/10/17 17:52:27;;;;;;;11.48;5.28;;;;;;;14.33;60.10;100653.56;10304208;28;20136;-57
2021/10/17 17:57:28;;;;;;;8.70;5.15;;;;;;;14.35;59.45;100661.47;10302950;28;20139;-57
2021/10/17 18:02:30;;;;;;;6.03;4.18;;;;;;;14.40;60.05;100656.56;10300216;28;20125;-55
2021/10/17 18:07:31;;;;;;;8.48;5.10;;;;;;;14.42;60.61;100665.28;10305837;28;20534;-57
2021/10/17 18:12:33;;;;;;;7.55;4.32;;;;;;;14.47;59.48;100670.22;10306889;28;20141;-54
2021/10/17 18:17:35;;;;;;;7.60;6.25;;;;;;;14.40;59.90;100669.94;10301307;28;20611;-58
2021/10/17 18:22:36;;;;;;;8.45;5.82;;;;;;;14.39;60.36;100665.56;10308439;28;20124;-58
2021/10/17 18:27:38;;;;;;;9.40;6.93;;;;;;;14.30;61.21;100679.78;10276008;28;20054;-58
2021/10/17 18:32:39;;;;;;;8.10;5.38;;;;;;;14.24;61.56;100672.31;10283989;28;20100;-59
2021/10/17 18:37:41;;;;;;;9.25;5.22;;;;;;;14.10;61.23;100679.75;10287315;28;20551;-58
2021/10/17 18:42:42;;;;;;;7.28;5.82;;;;;;;14.04;61.94;100685.63;10302874;28;20534;-59
2021/10/17 18:47:44;;;;;;;7.50;4.97;;;;;;;13.98;62.82;100688.84;10301708;28;20567;-59
2021/10/17 18:52:46;;;;;;;7.25;6.20;;;;;;;13.94;62.48;100696.28;10298729;28;20058;-59
2021/10/17 18:57:48;;;;;;;7.28;5.53;;;;;;;13.58;61.58;100695.84;10298836;28;20468;-58
2021/10/17 19:02:51;;;;;;;8.18;6.45;;;;;;;13.61;63.30;100695.56;10303575;28;20054;-59
2021/10/17 19:07:54;;;;;;;12.37;8.13;;;;;;;13.73;63.52;100695.50;10301884;28;20050;-58
2021/10/17 19:12:56;;;;;;;13.18;8.90;;;;;;;13.78;63.77;100701.28;10302879;28;20145;-59
2021/10/17 19:18:00;;;;;;;13.35;10.15;;;;;;;13.75;63.85;100702.44;10302352;28;20492;-59
2021/10/17 19:23:06;;;;;;;16.70;10.98;;;;;;;13.78;63.92;100702.16;10303649;28;20097;-63
2021/10/17 19:28:07;;;;;;;14.88;12.98;;;;;;;13.76;64.61;100704.09;10303139;28;20065;-60
2021/10/17 19:33:09;;;;;;;13.85;12.32;;;;;;;13.75;64.25;100706.91;10304595;28;20046;-57
2021/10/17 19:38:10;;;;;;;19.10;15.70;;;;;;;13.65;65.15;100714.06;10306813;28;20099;-58
2021/10/17 19:43:12;;;;;;;17.15;13.77;;;;;;;13.64;65.44;100728.41;10300678;28;20057;-58
2021/10/17 19:48:13;;;;;;;18.52;15.57;;;;;;;13.55;65.66;100716.66;10298525;28;20125;-58
2021/10/17 19:53:15;;;;;;;21.17;17.17;;;;;;;13.63;65.39;100735.59;10295501;28;20100;-58
2021/10/17 19:58:16;;;;;;;22.10;18.05;;;;;;;13.60;66.33;100736.69;10297134;28;20142;-58
2021/10/17 20:03:17;;;;;;;18.92;16.92;;;;;;;13.60;66.68;100742.03;10295606;28;20188;-59
2021/10/17 20:08:20;;;;;;;23.00;18.48;;;;;;;13.44;67.46;100738.97;10300939;28;20057;-58
2021/10/17 20:13:22;;;;;;;24.15;18.30;;;;;;;13.38;67.84;100740.34;10305920;28;20065;-58
2021/10/17 20:18:24;;;;;;;24.52;19.73;;;;;;;13.33;67.67;100749.69;10300667;28;20074;-58
2021/10/17 20:23:26;;;;;;;22.70;19.20;;;;;;;13.27;68.41;100761.78;10280636;28;20077;-59
2021/10/17 20:28:30;;;;;;;21.20;18.73;;;;;;;13.16;68.83;100767.16;10301008;28;20129;-59
2021/10/17 20:33:35;;;;;;;24.33;20.50;;;;;;;13.15;68.93;100777.00;10299516;28;20253;-59
2021/10/17 20:43:57;;;;;;;25.02;20.20;;;;;;;12.96;69.78;100774.16;10309956;28;20141;-59
2021/10/17 20:48:59;;;;;;;26.23;21.33;;;;;;;12.86;70.34;100769.53;10302766;28;20153;-59
2021/10/17 20:54:01;;;;;;;29.67;22.17;;;;;;;12.82;69.97;100775.28;10303032;28;20046;-58
2021/10/17 20:59:03;;;;;;;26.40;22.52;;;;;;;12.55;71.46;100769.38;10294750;28;20137;-57
2021/10/17 21:04:05;;;;;;;27.40;22.17;;;;;;;12.49;72.09;100771.69;10332713;28;20104;-57
2021/10/17 21:09:07;;;;;;;25.08;20.98;;;;;;;12.50;71.54;100768.06;10308900;28;20054;-58
2021/10/17 21:14:09;;;;;;;29.73;23.42;;;;;;;12.39;72.30;100774.25;10314662;28;20085;-58
2021/10/17 21:19:11;;;;;;;24.65;22.00;;;;;;;12.20;72.81;100782.88;10300531;28;20177;-58
2021/10/17 21:24:14;;;;;;;29.38;22.98;;;;;;;12.10;73.75;100777.44;10321790;28;20047;-58
2021/10/17 21:29:15;;;;;;;30.20;24.25;;;;;;;12.26;72.98;100771.69;10298624;28;20396;-57
2021/10/17 21:34:17;;;;;;;29.15;24.20;;;;;;;12.10;73.20;100772.09;10294514;28;20070;-57
2021/10/17 21:39:18;;;;;;;30.02;25.05;;;;;;;12.14;72.55;100783.34;10305068;28;20070;-57
2021/10/17 21:44:19;;;;;;;27.27;23.17;;;;;;;12.14;72.09;100792.19;10297145;28;20149;-58
2021/10/17 21:49:21;;;;;;;31.35;25.83;;;;;;;11.98;73.18;100784.56;10302936;28;20065;-58
2021/10/17 21:54:22;;;;;;;29.50;25.75;;;;;;;12.12;72.26;100801.31;10304355;28;20069;-58
2021/10/17 21:59:24;;;;;;;32.15;25.20;;;;;;;12.01;73.18;100789.66;10307534;28;20046;-58
2021/10/17 22:04:25;;;;;;;28.33;23.17;;;;;;;12.01;73.38;100802.16;10308415;28;20074;-58
2021/10/17 22:09:29;;;;;;;28.15;24.10;;;;;;;12.06;73.21;100791.97;10305338;28;20117;-58
2021/10/17 22:14:31;;;;;;;28.75;24.30;;;;;;;12.11;73.27;100802.28;10298083;28;20523;-58
2021/10/17 22:19:32;;;;;;;29.80;26.20;;;;;;;12.15;73.42;100806.41;10300145;28;20070;-58
2021/10/17 22:24:33;;;;;;;30.33;24.73;;;;;;;12.17;73.42;100804.47;10305530;28;20148;-58
2021/10/17 22:29:35;;;;;;;30.73;24.90;;;;;;;12.15;73.14;100798.41;10304886;28;20396;-57
2021/10/17 22:34:36;;;;;;;28.88;23.98;;;;;;;12.14;73.45;100805.53;10304511;28;20080;-59
2021/10/17 22:39:38;;;;;;;27.20;23.08;;;;;;;12.12;73.00;100825.34;10332902;28;20055;-58
2021/10/17 22:44:39;;;;;;;29.55;24.60;;;;;;;12.00;74.33;100809.31;10298530;28;20633;-57
2021/10/17 22:49:44;;;;;;;27.00;22.67;;;;;;;12.00;74.37;100803.13;10301023;28;20046;-58
2021/10/17 22:54:48;;;;;;;24.92;21.52;;;;;;;11.90;74.85;100815.44;10301911;28;20043;-58
2021/10/17 22:59:49;;;;;;;25.38;20.17;;;;;;;11.80;74.64;100823.28;10299902;28;20121;-58
2021/10/17 23:04:50;;;;;;;24.75;21.15;;;;;;;11.84;74.61;100836.28;10303847;28;20074;-58
2021/10/17 23:09:52;;;;;;;25.38;20.80;;;;;;;11.86;74.48;100838.84;10304293;28;20043;-58